Terminal Aerodrome Forecast
Issued by NWS

Home | Current Version | Previous Version | Text Only | Print | Product List | Glossary On
Versions: 1 2 3 4 5 6 7 8 9 10 11 12 13 14 15 16 17 18 19 20 21 22 23 24 25 26 27 28 29 30 31 32 33 34 35 36 37 38 39 40 41 42 43 44 45 46 47 48 49 50
601
FTUS43 KDMX 060742 AAA
TAFFOD
TAF AMD
KFOD 060742Z 0608/0706 21004KT 5SM BR OVC008
      TEMPO 0608/0609 OVC010
     FM061600 22006KT P6SM SCT020
     FM061800 22012KT P6SM BKN120
     FM070300 24005KT 5SM BR BKN010 OVC080=

USA.gov is the U.S. government's official web portal to all federal, state and local government web resources and services.